sensor_id;sensor_type;location;lat;lon;timestamp;P1;durP1;ratioP1;P2;durP2;ratioP2
22687;SDS011;11511;51.514;7.080;2022-11-15T00:02:01;11.77;;;7.90;;
22687;SDS011;11511;51.514;7.080;2022-11-15T00:04:48;12.02;;;8.32;;
22687;SDS011;11511;51.514;7.080;2022-11-15T00:07:33;12.83;;;8.27;;
22687;SDS011;11511;51.514;7.080;2022-11-15T00:10:18;10.67;;;8.20;;
22687;SDS011;11511;51.514;7.080;2022-11-15T00:13:12;10.32;;;7.53;;
22687;SDS011;11511;51.514;7.080;2022-11-15T00:15:57;11.40;;;8.02;;
22687;SDS011;11511;51.514;7.080;2022-11-15T00:18:43;15.23;;;7.95;;
22687;SDS011;11511;51.514;7.080;2022-11-15T00:21:27;16.27;;;7.90;;
22687;SDS011;11511;51.514;7.080;2022-11-15T00:24:11;10.05;;;8.02;;
22687;SDS011;11511;51.514;7.080;2022-11-15T00:26:57;10.25;;;8.07;;
22687;SDS011;11511;51.514;7.080;2022-11-15T00:29:41;14.75;;;8.38;;
22687;SDS011;11511;51.514;7.080;2022-11-15T00:32:31;13.45;;;8.32;;
22687;SDS011;11511;51.514;7.080;2022-11-15T00:35:16;10.93;;;8.20;;
22687;SDS011;11511;51.514;7.080;2022-11-15T00:38:02;11.18;;;8.00;;
22687;SDS011;11511;51.514;7.080;2022-11-15T00:40:46;11.43;;;7.97;;
22687;SDS011;11511;51.514;7.080;2022-11-15T00:43:31;9.55;;;7.70;;
22687;SDS011;11511;51.514;7.080;2022-11-15T00:46:16;10.98;;;7.75;;
22687;SDS011;11511;51.514;7.080;2022-11-15T00:49:01;10.80;;;7.97;;
22687;SDS011;11511;51.514;7.080;2022-11-15T00:51:45;11.20;;;7.95;;
22687;SDS011;11511;51.514;7.080;2022-11-15T00:54:30;10.40;;;7.75;;
22687;SDS011;11511;51.514;7.080;2022-11-15T00:57:14;10.20;;;7.38;;
22687;SDS011;11511;51.514;7.080;2022-11-15T00:59:59;12.32;;;8.10;;
22687;SDS011;11511;51.514;7.080;2022-11-15T01:02:43;11.00;;;7.60;;
22687;SDS011;11511;51.514;7.080;2022-11-15T01:05:28;11.25;;;7.53;;
22687;SDS011;11511;51.514;7.080;2022-11-15T01:08:15;12.80;;;7.85;;
22687;SDS011;11511;51.514;7.080;2022-11-15T01:11:06;11.10;;;7.60;;
22687;SDS011;11511;51.514;7.080;2022-11-15T01:13:52;11.23;;;7.35;;
22687;SDS011;11511;51.514;7.080;2022-11-15T01:16:39;11.07;;;7.93;;
22687;SDS011;11511;51.514;7.080;2022-11-15T01:19:24;11.40;;;7.53;;
22687;SDS011;11511;51.514;7.080;2022-11-15T01:22:09;9.05;;;7.00;;
22687;SDS011;11511;51.514;7.080;2022-11-15T01:24:54;11.95;;;6.63;;
22687;SDS011;11511;51.514;7.080;2022-11-15T01:27:38;12.32;;;6.90;;
22687;SDS011;11511;51.514;7.080;2022-11-15T01:30:23;9.77;;;6.97;;
22687;SDS011;11511;51.514;7.080;2022-11-15T01:33:07;8.33;;;6.53;;
22687;SDS011;11511;51.514;7.080;2022-11-15T01:35:51;11.30;;;6.82;;
22687;SDS011;11511;51.514;7.080;2022-11-15T01:38:36;9.35;;;6.97;;
22687;SDS011;11511;51.514;7.080;2022-11-15T01:41:21;13.73;;;7.05;;
22687;SDS011;11511;51.514;7.080;2022-11-15T01:47:33;9.20;;;6.63;;
22687;SDS011;11511;51.514;7.080;2022-11-15T01:50:22;9.05;;;6.80;;
22687;SDS011;11511;51.514;7.080;2022-11-15T01:53:11;11.20;;;6.47;;
22687;SDS011;11511;51.514;7.080;2022-11-15T01:55:56;7.63;;;6.15;;
22687;SDS011;11511;51.514;7.080;2022-11-15T01:58:44;8.85;;;6.40;;
22687;SDS011;11511;51.514;7.080;2022-11-15T02:01:30;8.60;;;6.38;;
22687;SDS011;11511;51.514;7.080;2022-11-15T02:04:22;9.23;;;6.60;;
22687;SDS011;11511;51.514;7.080;2022-11-15T02:07:11;11.00;;;6.50;;
22687;SDS011;11511;51.514;7.080;2022-11-15T02:10:07;8.02;;;6.45;;
22687;SDS011;11511;51.514;7.080;2022-11-15T02:15:40;9.07;;;6.13;;
22687;SDS011;11511;51.514;7.080;2022-11-15T02:18:41;9.30;;;6.25;;
22687;SDS011;11511;51.514;7.080;2022-11-15T02:21:43;9.20;;;6.80;;
22687;SDS011;11511;51.514;7.080;2022-11-15T02:45:24;8.10;;;6.22;;
22687;SDS011;11511;51.514;7.080;2022-11-15T02:48:14;8.63;;;6.35;;
22687;SDS011;11511;51.514;7.080;2022-11-15T02:51:01;10.63;;;6.57;;
22687;SDS011;11511;51.514;7.080;2022-11-15T02:53:47;10.98;;;6.78;;
22687;SDS011;11511;51.514;7.080;2022-11-15T02:56:31;10.05;;;6.00;;
22687;SDS011;11511;51.514;7.080;2022-11-15T03:05:25;10.25;;;6.50;;
22687;SDS011;11511;51.514;7.080;2022-11-15T03:08:23;9.68;;;6.78;;
22687;SDS011;11511;51.514;7.080;2022-11-15T03:11:15;11.35;;;7.10;;
22687;SDS011;11511;51.514;7.080;2022-11-15T03:17:10;10.50;;;6.18;;
22687;SDS011;11511;51.514;7.080;2022-11-15T03:20:00;10.20;;;6.55;;
22687;SDS011;11511;51.514;7.080;2022-11-15T03:22:48;10.95;;;6.65;;
22687;SDS011;11511;51.514;7.080;2022-11-15T03:25:34;8.10;;;6.60;;
22687;SDS011;11511;51.514;7.080;2022-11-15T03:28:26;11.27;;;6.45;;
22687;SDS011;11511;51.514;7.080;2022-11-15T03:31:17;11.18;;;7.18;;
22687;SDS011;11511;51.514;7.080;2022-11-15T03:34:29;8.02;;;6.65;;
22687;SDS011;11511;51.514;7.080;2022-11-15T03:37:18;10.13;;;6.97;;
22687;SDS011;11511;51.514;7.080;2022-11-15T03:40:06;10.05;;;6.53;;
22687;SDS011;11511;51.514;7.080;2022-11-15T03:42:59;11.48;;;6.53;;
22687;SDS011;11511;51.514;7.080;2022-11-15T03:46:22;10.60;;;7.20;;
22687;SDS011;11511;51.514;7.080;2022-11-15T03:49:43;7.72;;;6.55;;
22687;SDS011;11511;51.514;7.080;2022-11-15T03:52:11;9.40;;;6.57;;
22687;SDS011;11511;51.514;7.080;2022-11-15T03:54:56;6.70;;;5.80;;
22687;SDS011;11511;51.514;7.080;2022-11-15T03:57:44;6.88;;;6.10;;
22687;SDS011;11511;51.514;7.080;2022-11-15T04:00:28;10.80;;;6.00;;
22687;SDS011;11511;51.514;7.080;2022-11-15T04:03:13;9.43;;;5.95;;
22687;SDS011;11511;51.514;7.080;2022-11-15T04:05:58;9.00;;;6.20;;
22687;SDS011;11511;51.514;7.080;2022-11-15T04:08:42;9.18;;;5.88;;
22687;SDS011;11511;51.514;7.080;2022-11-15T04:11:27;10.35;;;6.32;;
22687;SDS011;11511;51.514;7.080;2022-11-15T04:14:11;8.75;;;6.40;;
22687;SDS011;11511;51.514;7.080;2022-11-15T04:16:55;8.48;;;6.10;;
22687;SDS011;11511;51.514;7.080;2022-11-15T04:19:39;10.95;;;5.95;;
22687;SDS011;11511;51.514;7.080;2022-11-15T04:22:44;8.70;;;6.07;;
22687;SDS011;11511;51.514;7.080;2022-11-15T04:25:47;8.98;;;5.93;;
22687;SDS011;11511;51.514;7.080;2022-11-15T04:28:35;8.50;;;5.80;;
22687;SDS011;11511;51.514;7.080;2022-11-15T04:31:40;9.35;;;6.20;;
22687;SDS011;11511;51.514;7.080;2022-11-15T04:34:24;9.73;;;6.28;;
22687;SDS011;11511;51.514;7.080;2022-11-15T04:37:09;7.65;;;5.88;;
22687;SDS011;11511;51.514;7.080;2022-11-15T04:39:56;10.10;;;6.45;;
22687;SDS011;11511;51.514;7.080;2022-11-15T04:42:40;7.45;;;5.78;;
22687;SDS011;11511;51.514;7.080;2022-11-15T04:45:27;10.23;;;6.22;;
22687;SDS011;11511;51.514;7.080;2022-11-15T04:48:11;7.82;;;5.65;;
22687;SDS011;11511;51.514;7.080;2022-11-15T04:50:55;7.40;;;5.78;;
22687;SDS011;11511;51.514;7.080;2022-11-15T04:53:40;7.65;;;5.72;;
22687;SDS011;11511;51.514;7.080;2022-11-15T04:56:24;7.53;;;6.13;;
22687;SDS011;11511;51.514;7.080;2022-11-15T04:59:08;7.28;;;5.55;;
22687;SDS011;11511;51.514;7.080;2022-11-15T05:01:53;8.38;;;5.05;;
22687;SDS011;11511;51.514;7.080;2022-11-15T05:04:37;7.35;;;5.20;;
22687;SDS011;11511;51.514;7.080;2022-11-15T05:07:21;5.95;;;5.30;;
22687;SDS011;11511;51.514;7.080;2022-11-15T05:10:06;7.95;;;5.47;;
22687;SDS011;11511;51.514;7.080;2022-11-15T05:12:51;7.90;;;5.40;;
22687;SDS011;11511;51.514;7.080;2022-11-15T05:15:35;7.10;;;5.25;;
22687;SDS011;11511;51.514;7.080;2022-11-15T05:18:19;7.32;;;5.50;;
22687;SDS011;11511;51.514;7.080;2022-11-15T05:21:08;6.20;;;5.18;;
22687;SDS011;11511;51.514;7.080;2022-11-15T05:23:54;9.77;;;5.38;;
22687;SDS011;11511;51.514;7.080;2022-11-15T05:26:39;7.88;;;5.80;;
22687;SDS011;11511;51.514;7.080;2022-11-15T05:29:23;7.28;;;5.40;;
22687;SDS011;11511;51.514;7.080;2022-11-15T05:32:08;7.28;;;5.72;;
22687;SDS011;11511;51.514;7.080;2022-11-15T05:34:54;8.82;;;5.78;;
22687;SDS011;11511;51.514;7.080;2022-11-15T05:37:39;7.72;;;6.00;;
22687;SDS011;11511;51.514;7.080;2022-11-15T05:40:24;7.25;;;5.95;;
22687;SDS011;11511;51.514;7.080;2022-11-15T05:43:09;7.70;;;6.90;;
22687;SDS011;11511;51.514;7.080;2022-11-15T05:45:53;9.63;;;6.63;;
22687;SDS011;11511;51.514;7.080;2022-11-15T05:48:38;8.68;;;6.47;;
22687;SDS011;11511;51.514;7.080;2022-11-15T05:51:27;12.10;;;7.90;;
22687;SDS011;11511;51.514;7.080;2022-11-15T05:54:13;9.02;;;7.65;;
22687;SDS011;11511;51.514;7.080;2022-11-15T05:56:58;9.55;;;8.10;;
22687;SDS011;11511;51.514;7.080;2022-11-15T05:59:43;10.82;;;8.32;;
22687;SDS011;11511;51.514;7.080;2022-11-15T06:05:14;10.40;;;8.20;;
22687;SDS011;11511;51.514;7.080;2022-11-15T06:07:59;12.18;;;8.38;;
22687;SDS011;11511;51.514;7.080;2022-11-15T06:10:44;12.15;;;9.38;;
22687;SDS011;11511;51.514;7.080;2022-11-15T06:13:28;13.57;;;10.00;;
22687;SDS011;11511;51.514;7.080;2022-11-15T06:16:13;13.10;;;9.73;;
22687;SDS011;11511;51.514;7.080;2022-11-15T06:18:58;11.32;;;9.48;;
22687;SDS011;11511;51.514;7.080;2022-11-15T06:21:42;13.00;;;9.27;;
22687;SDS011;11511;51.514;7.080;2022-11-15T06:24:27;10.55;;;8.88;;
22687;SDS011;11511;51.514;7.080;2022-11-15T06:27:11;10.75;;;8.57;;
22687;SDS011;11511;51.514;7.080;2022-11-15T06:29:55;9.80;;;8.60;;
22687;SDS011;11511;51.514;7.080;2022-11-15T06:32:40;10.32;;;8.52;;
22687;SDS011;11511;51.514;7.080;2022-11-15T06:35:24;10.05;;;8.40;;
22687;SDS011;11511;51.514;7.080;2022-11-15T06:38:09;12.60;;;8.20;;
22687;SDS011;11511;51.514;7.080;2022-11-15T06:40:55;9.02;;;8.10;;
22687;SDS011;11511;51.514;7.080;2022-11-15T06:43:45;10.13;;;7.75;;
22687;SDS011;11511;51.514;7.080;2022-11-15T06:46:29;8.65;;;7.57;;
22687;SDS011;11511;51.514;7.080;2022-11-15T06:49:13;8.02;;;6.97;;
22687;SDS011;11511;51.514;7.080;2022-11-15T06:51:58;10.55;;;7.28;;
22687;SDS011;11511;51.514;7.080;2022-11-15T06:54:43;9.63;;;8.10;;
22687;SDS011;11511;51.514;7.080;2022-11-15T06:57:27;9.63;;;7.13;;
22687;SDS011;11511;51.514;7.080;2022-11-15T07:00:11;8.63;;;6.73;;
22687;SDS011;11511;51.514;7.080;2022-11-15T07:02:59;8.13;;;6.87;;
22687;SDS011;11511;51.514;7.080;2022-11-15T07:05:54;7.43;;;6.18;;
22687;SDS011;11511;51.514;7.080;2022-11-15T07:08:40;7.72;;;6.38;;
22687;SDS011;11511;51.514;7.080;2022-11-15T07:11:26;7.03;;;5.47;;
22687;SDS011;11511;51.514;7.080;2022-11-15T07:14:10;7.00;;;5.85;;
22687;SDS011;11511;51.514;7.080;2022-11-15T07:16:54;6.50;;;5.45;;
22687;SDS011;11511;51.514;7.080;2022-11-15T07:19:38;7.45;;;5.28;;
22687;SDS011;11511;51.514;7.080;2022-11-15T07:22:22;5.97;;;4.60;;
22687;SDS011;11511;51.514;7.080;2022-11-15T07:25:07;5.00;;;4.50;;
22687;SDS011;11511;51.514;7.080;2022-11-15T07:27:55;4.88;;;4.18;;
22687;SDS011;11511;51.514;7.080;2022-11-15T07:30:41;7.05;;;4.05;;
22687;SDS011;11511;51.514;7.080;2022-11-15T07:33:25;5.35;;;4.18;;
22687;SDS011;11511;51.514;7.080;2022-11-15T07:36:10;4.75;;;4.25;;
22687;SDS011;11511;51.514;7.080;2022-11-15T07:38:54;4.03;;;3.55;;
22687;SDS011;11511;51.514;7.080;2022-11-15T07:41:38;4.43;;;3.70;;
22687;SDS011;11511;51.514;7.080;2022-11-15T07:44:22;5.18;;;3.45;;
22687;SDS011;11511;51.514;7.080;2022-11-15T07:47:07;5.03;;;3.47;;
22687;SDS011;11511;51.514;7.080;2022-11-15T07:49:51;3.28;;;2.97;;
22687;SDS011;11511;51.514;7.080;2022-11-15T07:52:36;4.50;;;3.03;;
22687;SDS011;11511;51.514;7.080;2022-11-15T07:55:21;4.23;;;2.60;;
22687;SDS011;11511;51.514;7.080;2022-11-15T07:58:10;5.28;;;3.30;;
22687;SDS011;11511;51.514;7.080;2022-11-15T08:00:56;6.47;;;2.95;;
22687;SDS011;11511;51.514;7.080;2022-11-15T08:03:40;4.22;;;3.00;;
22687;SDS011;11511;51.514;7.080;2022-11-15T08:06:24;3.13;;;2.83;;
22687;SDS011;11511;51.514;7.080;2022-11-15T08:09:08;3.67;;;2.60;;
22687;SDS011;11511;51.514;7.080;2022-11-15T08:11:53;3.25;;;2.42;;
22687;SDS011;11511;51.514;7.080;2022-11-15T08:14:37;3.30;;;2.75;;
22687;SDS011;11511;51.514;7.080;2022-11-15T08:17:23;3.78;;;2.38;;
22687;SDS011;11511;51.514;7.080;2022-11-15T08:20:08;3.83;;;2.30;;
22687;SDS011;11511;51.514;7.080;2022-11-15T08:22:53;7.15;;;3.33;;
22687;SDS011;11511;51.514;7.080;2022-11-15T08:25:37;2.83;;;2.30;;
22687;SDS011;11511;51.514;7.080;2022-11-15T08:28:21;2.20;;;2.00;;
22687;SDS011;11511;51.514;7.080;2022-11-15T08:31:05;2.40;;;2.20;;
22687;SDS011;11511;51.514;7.080;2022-11-15T08:33:50;2.78;;;1.90;;
22687;SDS011;11511;51.514;7.080;2022-11-15T08:36:35;2.57;;;2.20;;
22687;SDS011;11511;51.514;7.080;2022-11-15T08:39:19;4.05;;;2.08;;
22687;SDS011;11511;51.514;7.080;2022-11-15T08:42:03;3.25;;;2.10;;
22687;SDS011;11511;51.514;7.080;2022-11-15T08:44:48;2.55;;;1.70;;
22687;SDS011;11511;51.514;7.080;2022-11-15T08:47:33;4.32;;;1.73;;
22687;SDS011;11511;51.514;7.080;2022-11-15T08:50:17;2.20;;;1.77;;
22687;SDS011;11511;51.514;7.080;2022-11-15T08:53:06;3.77;;;1.63;;
22687;SDS011;11511;51.514;7.080;2022-11-15T08:55:52;2.08;;;1.52;;
22687;SDS011;11511;51.514;7.080;2022-11-15T08:58:36;3.92;;;1.63;;
22687;SDS011;11511;51.514;7.080;2022-11-15T09:01:22;2.67;;;1.57;;
22687;SDS011;11511;51.514;7.080;2022-11-15T09:04:06;2.13;;;1.48;;
22687;SDS011;11511;51.514;7.080;2022-11-15T09:06:51;3.03;;;1.85;;
22687;SDS011;11511;51.514;7.080;2022-11-15T09:09:35;2.35;;;1.52;;
22687;SDS011;11511;51.514;7.080;2022-11-15T09:12:20;3.15;;;1.80;;
22687;SDS011;11511;51.514;7.080;2022-11-15T09:15:05;3.07;;;1.60;;
22687;SDS011;11511;51.514;7.080;2022-11-15T09:17:52;2.60;;;1.50;;
22687;SDS011;11511;51.514;7.080;2022-11-15T09:20:36;1.83;;;1.50;;
22687;SDS011;11511;51.514;7.080;2022-11-15T09:23:21;2.70;;;1.40;;
22687;SDS011;11511;51.514;7.080;2022-11-15T09:26:06;2.00;;;1.50;;
22687;SDS011;11511;51.514;7.080;2022-11-15T09:28:51;6.35;;;1.60;;
22687;SDS011;11511;51.514;7.080;2022-11-15T09:31:35;1.85;;;1.40;;
22687;SDS011;11511;51.514;7.080;2022-11-15T09:34:20;2.40;;;1.50;;
22687;SDS011;11511;51.514;7.080;2022-11-15T09:37:04;3.40;;;1.50;;
22687;SDS011;11511;51.514;7.080;2022-11-15T09:39:49;3.73;;;1.50;;
22687;SDS011;11511;51.514;7.080;2022-11-15T09:42:38;2.47;;;1.30;;
22687;SDS011;11511;51.514;7.080;2022-11-15T09:45:42;1.13;;;1.02;;
22687;SDS011;11511;51.514;7.080;2022-11-15T09:51:47;2.13;;;1.00;;
22687;SDS011;11511;51.514;7.080;2022-11-15T09:57:12;5.25;;;1.25;;
22687;SDS011;11511;51.514;7.080;2022-11-15T09:59:53;0.88;;;0.80;;
22687;SDS011;11511;51.514;7.080;2022-11-15T10:05:08;1.42;;;1.30;;
22687;SDS011;11511;51.514;7.080;2022-11-15T10:07:40;2.65;;;1.20;;
22687;SDS011;11511;51.514;7.080;2022-11-15T10:10:20;1.23;;;0.90;;
22687;SDS011;11511;51.514;7.080;2022-11-15T10:12:50;2.47;;;1.00;;
22687;SDS011;11511;51.514;7.080;2022-11-15T10:15:18;3.65;;;1.00;;
22687;SDS011;11511;51.514;7.080;2022-11-15T10:20:27;1.15;;;0.95;;
22687;SDS011;11511;51.514;7.080;2022-11-15T10:23:01;1.33;;;0.90;;
22687;SDS011;11511;51.514;7.080;2022-11-15T10:25:32;2.05;;;0.90;;
22687;SDS011;11511;51.514;7.080;2022-11-15T10:28:01;2.38;;;0.90;;
22687;SDS011;11511;51.514;7.080;2022-11-15T10:30:37;5.75;;;1.02;;
22687;SDS011;11511;51.514;7.080;2022-11-15T10:35:51;1.92;;;1.02;;
22687;SDS011;11511;51.514;7.080;2022-11-15T10:41:16;2.30;;;1.10;;
22687;SDS011;11511;51.514;7.080;2022-11-15T10:43:44;2.08;;;1.10;;
22687;SDS011;11511;51.514;7.080;2022-11-15T10:46:18;2.17;;;1.13;;
22687;SDS011;11511;51.514;7.080;2022-11-15T10:51:22;5.15;;;1.00;;
22687;SDS011;11511;51.514;7.080;2022-11-15T10:53:54;3.63;;;1.02;;
22687;SDS011;11511;51.514;7.080;2022-11-15T10:56:23;2.55;;;1.10;;
22687;SDS011;11511;51.514;7.080;2022-11-15T10:58:58;3.17;;;1.00;;
22687;SDS011;11511;51.514;7.080;2022-11-15T11:01:27;2.10;;;1.27;;
22687;SDS011;11511;51.514;7.080;2022-11-15T11:04:02;6.43;;;1.27;;
22687;SDS011;11511;51.514;7.080;2022-11-15T11:06:45;2.35;;;0.70;;
22687;SDS011;11511;51.514;7.080;2022-11-15T11:09:21;3.13;;;0.95;;
22687;SDS011;11511;51.514;7.080;2022-11-15T11:12:01;0.90;;;0.80;;
22687;SDS011;11511;51.514;7.080;2022-11-15T11:14:33;1.90;;;0.98;;
22687;SDS011;11511;51.514;7.080;2022-11-15T11:25:56;1.15;;;0.80;;
22687;SDS011;11511;51.514;7.080;2022-11-15T11:48:17;3.42;;;0.77;;
22687;SDS011;11511;51.514;7.080;2022-11-15T11:50:52;1.42;;;0.73;;
22687;SDS011;11511;51.514;7.080;2022-11-15T11:53:25;1.23;;;0.70;;
22687;SDS011;11511;51.514;7.080;2022-11-15T11:55:57;1.67;;;0.70;;
22687;SDS011;11511;51.514;7.080;2022-11-15T11:58:38;2.35;;;1.10;;
22687;SDS011;11511;51.514;7.080;2022-11-15T12:03:44;4.30;;;0.85;;
22687;SDS011;11511;51.514;7.080;2022-11-15T12:11:20;7.03;;;0.80;;
22687;SDS011;11511;51.514;7.080;2022-11-15T12:13:53;5.03;;;0.82;;
22687;SDS011;11511;51.514;7.080;2022-11-15T12:16:28;1.98;;;0.80;;
22687;SDS011;11511;51.514;7.080;2022-11-15T12:19:00;4.40;;;0.80;;
22687;SDS011;11511;51.514;7.080;2022-11-15T12:24:01;1.05;;;0.50;;
22687;SDS011;11511;51.514;7.080;2022-11-15T12:26:33;7.45;;;0.85;;
22687;SDS011;11511;51.514;7.080;2022-11-15T12:29:27;2.05;;;0.75;;
22687;SDS011;11511;51.514;7.080;2022-11-15T12:31:55;1.35;;;0.80;;
22687;SDS011;11511;51.514;7.080;2022-11-15T12:36:53;4.65;;;0.95;;
22687;SDS011;11511;51.514;7.080;2022-11-15T12:39:21;4.72;;;0.80;;
22687;SDS011;11511;51.514;7.080;2022-11-15T12:44:56;2.58;;;0.80;;
22687;SDS011;11511;51.514;7.080;2022-11-15T12:47:25;2.88;;;0.60;;
22687;SDS011;11511;51.514;7.080;2022-11-15T12:49:51;3.30;;;0.75;;
22687;SDS011;11511;51.514;7.080;2022-11-15T12:52:17;1.27;;;0.73;;
22687;SDS011;11511;51.514;7.080;2022-11-15T12:54:51;2.08;;;0.77;;
22687;SDS011;11511;51.514;7.080;2022-11-15T13:00:04;8.02;;;3.33;;
22687;SDS011;11511;51.514;7.080;2022-11-15T13:08:06;3.50;;;0.98;;
22687;SDS011;11511;51.514;7.080;2022-11-15T13:10:32;4.78;;;0.93;;
22687;SDS011;11511;51.514;7.080;2022-11-15T13:20:54;5.45;;;0.93;;
22687;SDS011;11511;51.514;7.080;2022-11-15T13:23:21;3.47;;;0.73;;
22687;SDS011;11511;51.514;7.080;2022-11-15T13:25:57;1.25;;;0.40;;
22687;SDS011;11511;51.514;7.080;2022-11-15T13:28:43;2.67;;;0.73;;
22687;SDS011;11511;51.514;7.080;2022-11-15T13:31:18;4.60;;;1.08;;
22687;SDS011;11511;51.514;7.080;2022-11-15T13:34:12;1.77;;;0.63;;
22687;SDS011;11511;51.514;7.080;2022-11-15T13:36:42;4.38;;;1.02;;
22687;SDS011;11511;51.514;7.080;2022-11-15T13:39:23;2.20;;;0.82;;
22687;SDS011;11511;51.514;7.080;2022-11-15T13:41:53;2.97;;;0.68;;
22687;SDS011;11511;51.514;7.080;2022-11-15T13:44:23;3.72;;;0.73;;
22687;SDS011;11511;51.514;7.080;2022-11-15T13:47:05;1.65;;;0.60;;
22687;SDS011;11511;51.514;7.080;2022-11-15T13:49:43;6.10;;;0.77;;
22687;SDS011;11511;51.514;7.080;2022-11-15T13:52:13;2.95;;;0.60;;
22687;SDS011;11511;51.514;7.080;2022-11-15T13:54:43;3.53;;;0.98;;
22687;SDS011;11511;51.514;7.080;2022-11-15T13:57:19;3.08;;;0.73;;
22687;SDS011;11511;51.514;7.080;2022-11-15T13:59:49;2.47;;;0.90;;
22687;SDS011;11511;51.514;7.080;2022-11-15T14:02:27;1.48;;;0.77;;
22687;SDS011;11511;51.514;7.080;2022-11-15T14:07:41;3.50;;;0.73;;
22687;SDS011;11511;51.514;7.080;2022-11-15T14:10:30;2.30;;;0.80;;
22687;SDS011;11511;51.514;7.080;2022-11-15T14:12:59;3.75;;;0.90;;
22687;SDS011;11511;51.514;7.080;2022-11-15T14:15:33;2.95;;;0.90;;
22687;SDS011;11511;51.514;7.080;2022-11-15T14:18:03;4.35;;;0.70;;
22687;SDS011;11511;51.514;7.080;2022-11-15T14:23:05;3.15;;;0.90;;
22687;SDS011;11511;51.514;7.080;2022-11-15T14:25:57;3.58;;;0.95;;
22687;SDS011;11511;51.514;7.080;2022-11-15T14:30:54;4.88;;;0.90;;
22687;SDS011;11511;51.514;7.080;2022-11-15T14:33:32;2.67;;;1.02;;
22687;SDS011;11511;51.514;7.080;2022-11-15T14:36:03;3.00;;;0.82;;
22687;SDS011;11511;51.514;7.080;2022-11-15T14:38:32;3.05;;;0.93;;
22687;SDS011;11511;51.514;7.080;2022-11-15T14:40:58;2.50;;;1.00;;
22687;SDS011;11511;51.514;7.080;2022-11-15T14:43:23;2.10;;;1.10;;
22687;SDS011;11511;51.514;7.080;2022-11-15T14:45:49;2.85;;;1.23;;
22687;SDS011;11511;51.514;7.080;2022-11-15T14:48:15;3.38;;;0.98;;
22687;SDS011;11511;51.514;7.080;2022-11-15T14:50:42;2.60;;;1.08;;
22687;SDS011;11511;51.514;7.080;2022-11-15T14:53:12;2.95;;;1.20;;
22687;SDS011;11511;51.514;7.080;2022-11-15T14:55:41;1.10;;;1.00;;
22687;SDS011;11511;51.514;7.080;2022-11-15T14:58:07;1.98;;;0.90;;
22687;SDS011;11511;51.514;7.080;2022-11-15T15:00:33;3.95;;;1.45;;
22687;SDS011;11511;51.514;7.080;2022-11-15T15:03:00;3.25;;;1.10;;
22687;SDS011;11511;51.514;7.080;2022-11-15T15:05:36;1.85;;;1.27;;
22687;SDS011;11511;51.514;7.080;2022-11-15T15:08:04;3.83;;;1.30;;
22687;SDS011;11511;51.514;7.080;2022-11-15T15:10:32;1.67;;;1.00;;
22687;SDS011;11511;51.514;7.080;2022-11-15T15:13:01;4.45;;;1.60;;
22687;SDS011;11511;51.514;7.080;2022-11-15T15:15:31;4.18;;;1.45;;
22687;SDS011;11511;51.514;7.080;2022-11-15T15:17:58;4.45;;;1.35;;
22687;SDS011;11511;51.514;7.080;2022-11-15T15:20:24;3.03;;;1.55;;
22687;SDS011;11511;51.514;7.080;2022-11-15T15:22:50;2.83;;;1.67;;
22687;SDS011;11511;51.514;7.080;2022-11-15T15:25:19;4.13;;;1.70;;
22687;SDS011;11511;51.514;7.080;2022-11-15T15:27:53;1.77;;;1.40;;
22687;SDS011;11511;51.514;7.080;2022-11-15T15:30:21;6.15;;;1.92;;
22687;SDS011;11511;51.514;7.080;2022-11-15T15:32:50;2.60;;;1.70;;
22687;SDS011;11511;51.514;7.080;2022-11-15T15:35:16;2.20;;;1.65;;
22687;SDS011;11511;51.514;7.080;2022-11-15T15:37:43;2.70;;;1.70;;
22687;SDS011;11511;51.514;7.080;2022-11-15T15:40:15;4.55;;;1.90;;
22687;SDS011;11511;51.514;7.080;2022-11-15T15:42:42;3.30;;;2.03;;
22687;SDS011;11511;51.514;7.080;2022-11-15T15:45:09;4.15;;;1.90;;
22687;SDS011;11511;51.514;7.080;2022-11-15T15:47:36;3.30;;;1.75;;
22687;SDS011;11511;51.514;7.080;2022-11-15T15:50:03;3.10;;;1.63;;
22687;SDS011;11511;51.514;7.080;2022-11-15T15:52:29;2.60;;;1.70;;
22687;SDS011;11511;51.514;7.080;2022-11-15T15:54:55;2.75;;;1.70;;
22687;SDS011;11511;51.514;7.080;2022-11-15T15:57:21;2.92;;;1.83;;
22687;SDS011;11511;51.514;7.080;2022-11-15T15:59:46;2.65;;;1.70;;
22687;SDS011;11511;51.514;7.080;2022-11-15T16:02:12;5.18;;;2.00;;
22687;SDS011;11511;51.514;7.080;2022-11-15T16:04:38;6.55;;;1.90;;
22687;SDS011;11511;51.514;7.080;2022-11-15T16:07:04;2.88;;;1.80;;
22687;SDS011;11511;51.514;7.080;2022-11-15T16:09:31;3.30;;;2.10;;
22687;SDS011;11511;51.514;7.080;2022-11-15T16:12:15;4.45;;;1.90;;
22687;SDS011;11511;51.514;7.080;2022-11-15T16:14:42;2.38;;;1.90;;
22687;SDS011;11511;51.514;7.080;2022-11-15T16:17:14;4.68;;;2.20;;
22687;SDS011;11511;51.514;7.080;2022-11-15T16:19:43;2.97;;;1.90;;
22687;SDS011;11511;51.514;7.080;2022-11-15T16:22:08;5.05;;;1.90;;
22687;SDS011;11511;51.514;7.080;2022-11-15T16:24:34;2.55;;;1.67;;
22687;SDS011;11511;51.514;7.080;2022-11-15T16:27:00;2.92;;;1.95;;
22687;SDS011;11511;51.514;7.080;2022-11-15T16:29:25;5.07;;;1.70;;
22687;SDS011;11511;51.514;7.080;2022-11-15T16:31:51;3.97;;;1.92;;
22687;SDS011;11511;51.514;7.080;2022-11-15T16:34:17;3.75;;;1.77;;
22687;SDS011;11511;51.514;7.080;2022-11-15T16:36:43;3.22;;;2.08;;
22687;SDS011;11511;51.514;7.080;2022-11-15T16:39:11;3.25;;;2.10;;
22687;SDS011;11511;51.514;7.080;2022-11-15T16:41:43;2.83;;;1.95;;
22687;SDS011;11511;51.514;7.080;2022-11-15T16:44:12;2.20;;;1.83;;
22687;SDS011;11511;51.514;7.080;2022-11-15T16:46:40;2.95;;;1.85;;
22687;SDS011;11511;51.514;7.080;2022-11-15T16:49:13;3.10;;;1.70;;
22687;SDS011;11511;51.514;7.080;2022-11-15T16:51:40;3.67;;;2.10;;
22687;SDS011;11511;51.514;7.080;2022-11-15T16:54:06;4.00;;;1.75;;
22687;SDS011;11511;51.514;7.080;2022-11-15T16:56:32;3.42;;;2.30;;
22687;SDS011;11511;51.514;7.080;2022-11-15T16:58:59;4.45;;;2.08;;
22687;SDS011;11511;51.514;7.080;2022-11-15T17:01:35;3.15;;;1.90;;
22687;SDS011;11511;51.514;7.080;2022-11-15T17:04:15;3.35;;;1.90;;
22687;SDS011;11511;51.514;7.080;2022-11-15T17:06:45;3.72;;;2.13;;
22687;SDS011;11511;51.514;7.080;2022-11-15T17:09:13;2.95;;;1.88;;
22687;SDS011;11511;51.514;7.080;2022-11-15T17:11:41;5.22;;;1.92;;
22687;SDS011;11511;51.514;7.080;2022-11-15T17:14:07;2.95;;;1.92;;
22687;SDS011;11511;51.514;7.080;2022-11-15T17:16:32;3.25;;;1.85;;
22687;SDS011;11511;51.514;7.080;2022-11-15T17:19:00;2.50;;;1.80;;
22687;SDS011;11511;51.514;7.080;2022-11-15T17:21:26;5.32;;;2.25;;
22687;SDS011;11511;51.514;7.080;2022-11-15T17:23:53;3.80;;;2.08;;
22687;SDS011;11511;51.514;7.080;2022-11-15T17:26:19;3.90;;;2.00;;
22687;SDS011;11511;51.514;7.080;2022-11-15T17:28:45;4.05;;;2.42;;
22687;SDS011;11511;51.514;7.080;2022-11-15T17:31:14;2.63;;;1.92;;
22687;SDS011;11511;51.514;7.080;2022-11-15T17:33:40;2.78;;;2.05;;
22687;SDS011;11511;51.514;7.080;2022-11-15T17:36:07;3.85;;;1.90;;
22687;SDS011;11511;51.514;7.080;2022-11-15T17:38:35;2.63;;;1.70;;
22687;SDS011;11511;51.514;7.080;2022-11-15T17:41:01;3.65;;;1.92;;
22687;SDS011;11511;51.514;7.080;2022-11-15T17:43:29;2.45;;;1.55;;
22687;SDS011;11511;51.514;7.080;2022-11-15T17:45:56;1.90;;;1.45;;
22687;SDS011;11511;51.514;7.080;2022-11-15T17:48:22;1.88;;;1.60;;
22687;SDS011;11511;51.514;7.080;2022-11-15T17:50:55;2.72;;;1.90;;
22687;SDS011;11511;51.514;7.080;2022-11-15T17:53:23;2.33;;;1.73;;
22687;SDS011;11511;51.514;7.080;2022-11-15T17:55:49;2.00;;;1.60;;
22687;SDS011;11511;51.514;7.080;2022-11-15T17:58:15;2.70;;;1.70;;
22687;SDS011;11511;51.514;7.080;2022-11-15T18:00:47;1.88;;;1.70;;
22687;SDS011;11511;51.514;7.080;2022-11-15T18:03:14;2.97;;;1.77;;
22687;SDS011;11511;51.514;7.080;2022-11-15T18:05:40;1.90;;;1.67;;